Time,TemperatureF,DewpointF,PressureIn,WindDirection,WindDirectionDegrees,WindSpeedMPH,WindSpeedGustMPH,Humidity,HourlyPrecipIn,Conditions,Clouds,dailyrainin,SoftwareType,DateUTC
2013-07-19 00:00:00,74.8,72.0,30.10,WNW,284,0.0,0.0,91,0.00,,,0.00,meteohub,2013-07-19 05:00:00,
2013-07-19 00:05:00,74.7,71.8,30.09,WNW,284,0.0,0.0,91,0.00,,,0.00,meteohub,2013-07-19 05:05:00,
2013-07-19 00:10:00,74.7,72.1,30.09,WNW,284,0.0,0.0,92,0.00,,,0.00,meteohub,2013-07-19 05:10:00,
2013-07-19 00:15:00,74.7,72.1,30.09,WNW,284,0.0,0.0,92,0.00,,,0.00,meteohub,2013-07-19 05:15:00,
2013-07-19 00:20:00,74.5,72.0,30.09,WNW,284,0.0,0.0,92,0.00,,,0.00,meteohub,2013-07-19 05:20:00,
2013-07-19 00:25:00,74.5,72.0,30.09,WNW,284,0.0,0.0,92,0.00,,,0.00,meteohub,2013-07-19 05:25:00,
2013-07-19 00:30:00,74.5,72.0,30.08,WNW,284,0.0,0.0,92,0.00,,,0.00,meteohub,2013-07-19 05:30:00,
2013-07-19 00:36:00,74.1,71.6,30.08,WNW,284,0.0,0.0,92,0.00,,,0.00,meteohub,2013-07-19 05:36:00,
2013-07-19 00:41:00,74.1,72.0,30.08,WNW,284,0.0,0.0,93,0.00,,,0.00,meteohub,2013-07-19 05:41:00,
2013-07-19 00:46:00,74.1,72.0,30.08,WNW,284,0.0,0.0,93,0.00,,,0.00,meteohub,2013-07-19 05:46:00,
2013-07-19 00:51:00,74.1,72.0,30.08,WNW,284,0.0,0.0,93,0.00,,,0.00,meteohub,2013-07-19 05:51:00,
2013-07-19 00:56:00,73.9,71.8,30.08,WNW,284,0.0,0.0,93,0.00,,,0.00,meteohub,2013-07-19 05:56:00,
2013-07-19 01:01:00,73.9,71.8,30.08,WNW,284,0.0,0.0,93,0.00,,,0.00,meteohub,2013-07-19 06:01:00,
2013-07-19 01:06:00,73.9,71.8,30.08,WNW,284,0.0,0.0,93,0.00,,,0.00,meteohub,2013-07-19 06:06:00,
2013-07-19 01:11:00,73.9,71.8,30.08,WNW,284,0.0,0.0,93,0.00,,,0.00,meteohub,2013-07-19 06:11:00,
2013-07-19 01:16:00,73.9,71.8,30.08,WNW,284,0.0,0.0,93,0.00,,,0.00,meteohub,2013-07-19 06:16:00,
2013-07-19 01:22:00,73.9,71.8,30.07,WNW,284,0.0,0.0,93,0.00,,,0.00,meteohub,2013-07-19 06:22:00,
2013-07-19 01:27:00,73.9,71.8,30.07,WNW,284,0.0,0.0,93,0.00,,,0.00,meteohub,2013-07-19 06:27:00,
2013-07-19 01:32:00,73.9,72.1,30.06,WNW,284,0.0,0.0,94,0.00,,,0.00,meteohub,2013-07-19 06:32:00,
2013-07-19 01:37:00,73.9,72.1,30.06,WNW,284,0.0,0.0,94,0.00,,,0.00,meteohub,2013-07-19 06:37:00,
2013-07-19 01:42:00,73.8,72.0,30.06,WNW,284,0.0,0.0,94,0.00,,,0.00,meteohub,2013-07-19 06:42:00,
2013-07-19 01:47:00,73.8,72.0,30.06,WNW,284,0.0,0.0,94,0.00,,,0.00,meteohub,2013-07-19 06:47:00,
2013-07-19 01:52:00,73.6,71.8,30.06,WNW,284,0.0,0.0,94,0.00,,,0.00,meteohub,2013-07-19 06:52:00,
2013-07-19 01:57:00,73.6,71.8,30.06,WNW,284,0.0,1.0,94,0.00,,,0.00,meteohub,2013-07-19 06:57:00,
2013-07-19 02:02:00,73.4,71.6,30.06,WNW,284,0.0,1.0,94,0.00,,,0.00,meteohub,2013-07-19 07:02:00,
2013-07-19 02:07:00,73.4,71.6,30.06,WNW,284,0.0,1.0,94,0.00,,,0.00,meteohub,2013-07-19 07:07:00,
2013-07-19 02:12:00,73.4,71.6,30.06,WNW,284,0.0,1.0,94,0.00,,,0.00,meteohub,2013-07-19 07:12:00,
2013-07-19 02:17:00,73.2,71.4,30.05,WNW,284,0.0,1.0,94,0.00,,,0.00,meteohub,2013-07-19 07:17:00,
2013-07-19 02:22:00,73.2,71.4,30.05,WNW,284,0.0,1.0,94,0.00,,,0.00,meteohub,2013-07-19 07:22:00,
2013-07-19 02:27:00,73.2,71.4,30.06,WNW,284,0.0,0.0,94,0.00,,,0.00,meteohub,2013-07-19 07:27:00,
2013-07-19 02:32:00,73.0,71.2,30.05,WNW,284,0.0,0.0,94,0.00,,,0.00,meteohub,2013-07-19 07:32:00,
2013-07-19 02:37:00,73.0,71.2,30.05,WNW,284,0.0,0.0,94,0.00,,,0.00,meteohub,2013-07-19 07:37:00,
2013-07-19 02:42:00,73.0,71.2,30.05,WNW,284,0.0,1.0,94,0.00,,,0.00,meteohub,2013-07-19 07:42:00,
2013-07-19 02:47:00,73.0,71.2,30.05,WNW,284,0.0,1.0,94,0.00,,,0.00,meteohub,2013-07-19 07:47:00,
2013-07-19 02:52:00,73.0,71.2,30.05,WNW,284,0.0,1.0,94,0.00,,,0.00,meteohub,2013-07-19 07:52:00,
2013-07-19 02:57:00,73.0,71.2,30.04,WNW,284,0.0,1.0,94,0.00,,,0.00,meteohub,2013-07-19 07:57:00,
2013-07-19 03:02:00,73.0,71.2,30.04,WNW,284,0.0,0.0,94,0.00,,,0.00,meteohub,2013-07-19 08:02:00,
2013-07-19 03:07:00,73.0,71.2,30.04,WNW,284,0.0,0.0,94,0.00,,,0.00,meteohub,2013-07-19 08:07:00,
2013-07-19 03:12:00,73.0,71.2,30.04,WNW,284,0.0,0.0,94,0.00,,,0.00,meteohub,2013-07-19 08:12:00,
2013-07-19 03:17:00,72.9,70.7,30.04,WNW,284,0.0,0.0,93,0.00,,,0.00,meteohub,2013-07-19 08:17:00,
2013-07-19 03:22:00,72.9,71.1,30.04,WNW,284,0.0,0.0,94,0.00,,,0.00,meteohub,2013-07-19 08:22:00,
2013-07-19 03:27:00,72.9,71.1,30.04,WNW,284,0.0,0.0,94,0.00,,,0.00,meteohub,2013-07-19 08:27:00,
2013-07-19 03:32:00,72.9,71.1,30.04,WNW,284,0.0,0.0,94,0.00,,,0.00,meteohub,2013-07-19 08:32:00,
2013-07-19 03:37:00,72.9,71.1,30.04,WNW,284,0.0,0.0,94,0.00,,,0.00,meteohub,2013-07-19 08:37:00,
2013-07-19 03:43:00,72.9,71.1,30.04,WNW,284,0.0,0.0,94,0.00,,,0.00,meteohub,2013-07-19 08:43:00,
2013-07-19 03:48:00,72.9,71.1,30.04,WNW,284,0.0,0.0,94,0.00,,,0.00,meteohub,2013-07-19 08:48:00,
2013-07-19 03:53:00,72.9,71.1,30.05,WNW,284,0.0,0.0,94,0.00,,,0.00,meteohub,2013-07-19 08:53:00,
2013-07-19 03:58:00,72.9,71.1,30.04,WNW,284,0.0,0.0,94,0.00,,,0.00,meteohub,2013-07-19 08:58:00,
2013-07-19 04:03:00,72.9,71.1,30.05,WNW,284,0.0,1.0,94,0.00,,,0.00,meteohub,2013-07-19 09:03:00,
2013-07-19 04:08:00,72.9,71.1,30.05,WNW,284,0.0,1.0,94,0.00,,,0.00,meteohub,2013-07-19 09:08:00,
2013-07-19 04:13:00,72.9,71.1,30.05,WNW,284,0.0,1.0,94,0.00,,,0.00,meteohub,2013-07-19 09:13:00,
2013-07-19 04:18:00,72.9,71.1,30.04,WNW,284,0.0,0.0,94,0.00,,,0.00,meteohub,2013-07-19 09:18:00,
2013-07-19 04:23:00,72.7,70.5,30.04,WNW,284,0.0,0.0,93,0.00,,,0.00,meteohub,2013-07-19 09:23:00,
2013-07-19 04:28:00,72.7,70.9,30.04,WNW,284,0.0,0.0,94,0.00,,,0.00,meteohub,2013-07-19 09:28:00,
2013-07-19 04:34:00,72.9,71.1,30.04,WNW,284,0.0,1.0,94,0.00,,,0.00,meteohub,2013-07-19 09:34:00,
2013-07-19 04:39:00,72.9,71.1,30.04,WNW,284,0.0,1.0,94,0.00,,,0.00,meteohub,2013-07-19 09:39:00,
2013-07-19 04:44:00,72.9,71.1,30.04,WNW,284,0.0,1.0,94,0.00,,,0.00,meteohub,2013-07-19 09:44:00,
2013-07-19 04:49:00,72.9,70.7,30.05,WNW,284,0.0,1.0,93,0.00,,,0.00,meteohub,2013-07-19 09:49:00,
2013-07-19 04:54:00,72.7,70.5,30.04,WNW,284,0.0,1.0,93,0.00,,,0.00,meteohub,2013-07-19 09:54:00,
2013-07-19 04:59:00,72.5,70.3,30.04,WNW,284,0.0,1.0,93,0.00,,,0.00,meteohub,2013-07-19 09:59:00,
2013-07-19 05:04:00,72.5,70.7,30.04,WNW,284,0.0,0.0,94,0.00,,,0.00,meteohub,2013-07-19 10:04:00,
2013-07-19 05:09:00,72.5,70.7,30.04,WNW,284,0.0,0.0,94,0.00,,,0.00,meteohub,2013-07-19 10:09:00,
2013-07-19 05:14:00,72.3,70.5,30.05,WNW,284,0.0,0.0,94,0.00,,,0.00,meteohub,2013-07-19 10:14:00,
2013-07-19 05:19:00,72.1,70.3,30.05,WNW,284,1.0,0.0,94,0.00,,,0.00,meteohub,2013-07-19 10:19:00,
2013-07-19 05:25:00,72.0,70.2,30.05,WNW,284,0.0,1.0,94,0.00,,,0.00,meteohub,2013-07-19 10:25:00,
2013-07-19 05:30:00,72.0,70.2,30.05,WNW,284,0.0,1.0,94,0.00,,,0.00,meteohub,2013-07-19 10:30:00,
2013-07-19 05:35:00,72.0,70.2,30.05,WNW,284,1.0,1.0,94,0.00,,,0.00,meteohub,2013-07-19 10:35:00,
2013-07-19 05:40:00,72.0,70.2,30.05,WNW,284,0.0,2.0,94,0.00,,,0.00,meteohub,2013-07-19 10:40:00,
2013-07-19 05:45:00,72.0,70.2,30.05,WNW,283,0.0,2.0,94,0.00,,,0.00,meteohub,2013-07-19 10:45:00,
2013-07-19 05:50:00,72.1,70.7,30.05,WNW,284,0.0,2.0,95,0.00,,,0.00,meteohub,2013-07-19 10:50:00,
2013-07-19 05:55:00,72.3,70.9,30.05,WNW,284,0.0,1.0,95,0.00,,,0.00,meteohub,2013-07-19 10:55:00,
2013-07-19 06:00:00,72.3,70.9,30.06,WNW,284,0.0,1.0,95,0.00,,,0.00,meteohub,2013-07-19 11:00:00,
2013-07-19 06:05:00,72.5,71.1,30.06,WNW,284,0.0,0.0,95,0.00,,,0.00,meteohub,2013-07-19 11:05:00,
2013-07-19 06:11:00,72.5,70.7,30.06,WNW,283,0.0,0.0,94,0.00,,,0.00,meteohub,2013-07-19 11:11:00,
2013-07-19 06:16:00,72.7,70.9,30.06,WNW,284,0.0,0.0,94,0.00,,,0.00,meteohub,2013-07-19 11:16:00,
2013-07-19 06:21:00,72.7,70.9,30.06,WNW,284,0.0,0.0,94,0.00,,,0.00,meteohub,2013-07-19 11:21:00,
2013-07-19 06:26:00,72.9,71.1,30.07,WNW,284,0.0,0.0,94,0.00,,,0.00,meteohub,2013-07-19 11:26:00,
2013-07-19 06:31:00,72.9,71.4,30.07,WNW,284,0.0,0.0,95,0.00,,,0.00,meteohub,2013-07-19 11:31:00,
2013-07-19 06:36:00,73.0,71.6,30.08,WNW,284,0.0,0.0,95,0.00,,,0.00,meteohub,2013-07-19 11:36:00,
2013-07-19 06:41:00,73.2,71.4,30.07,WNW,284,0.0,0.0,94,0.00,,,0.00,meteohub,2013-07-19 11:41:00,
2013-07-19 06:46:00,73.2,71.4,30.08,WNW,284,0.0,1.0,94,0.00,,,0.00,meteohub,2013-07-19 11:46:00,
2013-07-19 06:51:00,73.6,71.8,30.08,WNW,284,0.0,1.0,94,0.00,,,0.00,meteohub,2013-07-19 11:51:00,
2013-07-19 06:57:00,73.8,72.0,30.08,WNW,284,0.0,1.0,94,0.00,,,0.00,meteohub,2013-07-19 11:57:00,
2013-07-19 07:02:00,73.8,72.0,30.08,WNW,284,0.0,0.0,94,0.00,,,0.00,meteohub,2013-07-19 12:02:00,
2013-07-19 07:07:00,73.9,72.1,30.08,WNW,284,0.0,0.0,94,0.00,,,0.00,meteohub,2013-07-19 12:07:00,
2013-07-19 07:12:00,73.9,72.1,30.08,WNW,284,0.0,1.0,94,0.00,,,0.00,meteohub,2013-07-19 12:12:00,
2013-07-19 07:17:00,74.1,72.3,30.08,WNW,284,0.0,1.0,94,0.00,,,0.00,meteohub,2013-07-19 12:17:00,
2013-07-19 07:22:00,74.3,72.5,30.09,WNW,284,1.0,1.0,94,0.00,,,0.00,meteohub,2013-07-19 12:22:00,
2013-07-19 07:27:00,74.5,72.7,30.09,WNW,284,0.0,1.0,94,0.00,,,0.00,meteohub,2013-07-19 12:27:00,
2013-07-19 07:32:00,74.7,72.5,30.09,WNW,284,0.0,1.0,93,0.00,,,0.00,meteohub,2013-07-19 12:32:00,
2013-07-19 07:37:00,74.7,72.5,30.09,WNW,284,0.0,1.0,93,0.00,,,0.00,meteohub,2013-07-19 12:37:00,
2013-07-19 07:42:00,74.8,72.7,30.10,WNW,284,0.0,0.0,93,0.00,,,0.00,meteohub,2013-07-19 12:42:00,
2013-07-19 07:47:00,75.0,72.9,30.10,WNW,284,0.0,0.0,93,0.00,,,0.00,meteohub,2013-07-19 12:47:00,
2013-07-19 07:52:00,75.0,72.9,30.10,WNW,284,0.0,0.0,93,0.00,,,0.00,meteohub,2013-07-19 12:52:00,
2013-07-19 07:57:00,75.2,73.0,30.10,WNW,284,0.0,0.0,93,0.00,,,0.00,meteohub,2013-07-19 12:57:00,
2013-07-19 08:03:00,75.4,73.2,30.10,WNW,284,0.0,0.0,93,0.00,,,0.00,meteohub,2013-07-19 13:03:00,
2013-07-19 08:08:00,75.4,72.9,30.11,WNW,284,0.0,0.0,92,0.00,,,0.00,meteohub,2013-07-19 13:08:00,
2013-07-19 08:13:00,75.6,73.4,30.11,WNW,284,0.0,1.0,93,0.00,,,0.00,meteohub,2013-07-19 13:13:00,
2013-07-19 08:18:00,75.7,73.6,30.11,WNW,284,0.0,1.0,93,0.00,,,0.00,meteohub,2013-07-19 13:18:00,
2013-07-19 08:23:00,75.9,73.0,30.11,WNW,284,0.0,1.0,91,0.00,,,0.00,meteohub,2013-07-19 13:23:00,
2013-07-19 08:26:00,75.9,73.0,30.11,WNW,284,0.0,0.0,91,0.00,,,0.00,meteohub,2013-07-19 13:26:00,
2013-07-19 08:32:00,75.9,73.0,30.11,WNW,284,0.0,0.0,91,0.00,,,0.00,meteohub,2013-07-19 13:32:00,
2013-07-19 08:37:00,76.1,73.2,30.11,WNW,284,0.0,0.0,91,0.00,,,0.00,meteohub,2013-07-19 13:37:00,
2013-07-19 08:42:00,76.3,73.4,30.11,WNW,284,0.0,0.0,91,0.00,,,0.00,meteohub,2013-07-19 13:42:00,
2013-07-19 08:47:00,76.5,73.2,30.11,WNW,284,0.0,0.0,90,0.00,,,0.00,meteohub,2013-07-19 13:47:00,
2013-07-19 08:52:00,76.6,73.4,30.11,WNW,284,0.0,0.0,90,0.00,,,0.00,meteohub,2013-07-19 13:52:00,
2013-07-19 08:57:00,76.8,72.7,30.11,WNW,284,0.0,0.0,87,0.00,,,0.00,meteohub,2013-07-19 13:57:00,
2013-07-19 09:02:00,77.0,73.2,30.11,WNW,284,0.0,0.0,88,0.00,,,0.00,meteohub,2013-07-19 14:02:00,
2013-07-19 09:07:00,77.2,73.4,30.11,WNW,284,0.0,0.0,88,0.00,,,0.00,meteohub,2013-07-19 14:07:00,
2013-07-19 09:12:00,77.2,73.0,30.11,WNW,284,0.0,0.0,87,0.00,,,0.00,meteohub,2013-07-19 14:12:00,
2013-07-19 09:17:00,77.4,73.6,30.11,WNW,284,0.0,1.0,88,0.00,,,0.00,meteohub,2013-07-19 14:17:00,
2013-07-19 09:22:00,77.5,73.8,30.11,WNW,284,0.0,1.0,88,0.00,,,0.00,meteohub,2013-07-19 14:22:00,
2013-07-19 09:27:00,77.9,74.1,30.11,WNW,284,0.0,1.0,88,0.00,,,0.00,meteohub,2013-07-19 14:27:00,
2013-07-19 09:32:00,78.3,74.5,30.11,WNW,284,0.0,0.0,88,0.00,,,0.00,meteohub,2013-07-19 14:32:00,
2013-07-19 09:37:00,78.4,73.9,30.11,WNW,283,1.0,0.0,86,0.00,,,0.00,meteohub,2013-07-19 14:37:00,
2013-07-19 09:42:00,78.4,74.3,30.11,WNW,284,1.0,1.0,87,0.00,,,0.00,meteohub,2013-07-19 14:42:00,
2013-07-19 09:47:00,78.3,74.1,30.10,WNW,283,0.0,2.0,87,0.00,,,0.00,meteohub,2013-07-19 14:47:00,
2013-07-19 09:52:00,78.4,74.3,30.11,WNW,283,0.0,2.0,87,0.00,,,0.00,meteohub,2013-07-19 14:52:00,
2013-07-19 09:57:00,78.6,74.1,30.10,WNW,283,0.0,2.0,86,0.00,,,0.00,meteohub,2013-07-19 14:57:00,
2013-07-19 10:02:00,79.0,74.5,30.10,WNW,283,0.0,1.0,86,0.00,,,0.00,meteohub,2013-07-19 15:02:00,
2013-07-19 10:07:00,79.3,74.8,30.10,WNW,283,0.0,1.0,86,0.00,,,0.00,meteohub,2013-07-19 15:07:00,
2013-07-19 10:12:00,79.7,74.5,30.10,WNW,284,0.0,1.0,84,0.00,,,0.00,meteohub,2013-07-19 15:12:00,
2013-07-19 10:17:00,80.1,74.8,30.10,NW,305,0.0,1.0,84,0.00,,,0.00,meteohub,2013-07-19 15:17:00,
2013-07-19 10:22:00,80.4,74.8,30.10,NW,305,0.0,2.0,83,0.00,,,0.00,meteohub,2013-07-19 15:22:00,
2013-07-19 10:27:00,80.8,75.6,30.11,NW,305,1.0,2.0,84,0.00,,,0.00,meteohub,2013-07-19 15:27:00,
2013-07-19 10:32:00,81.1,74.7,30.10,NW,305,0.0,2.0,81,0.00,,,0.00,meteohub,2013-07-19 15:32:00,
2013-07-19 10:37:00,81.7,74.1,30.10,NE,48,0.0,2.0,78,0.00,,,0.00,meteohub,2013-07-19 15:37:00,
2013-07-19 10:42:00,82.0,73.4,30.11,NE,48,0.0,2.0,75,0.00,,,0.00,meteohub,2013-07-19 15:42:00,
2013-07-19 10:48:00,82.4,74.1,30.10,NE,48,0.0,2.0,76,0.00,,,0.00,meteohub,2013-07-19 15:48:00,
2013-07-19 10:53:00,82.9,75.0,30.10,NE,48,0.0,2.0,77,0.00,,,0.00,meteohub,2013-07-19 15:53:00,
2013-07-19 10:58:00,83.5,74.3,30.10,NE,48,0.0,2.0,74,0.00,,,0.00,meteohub,2013-07-19 15:58:00,
2013-07-19 11:03:00,83.5,74.3,30.10,NE,48,1.0,2.0,74,0.00,,,0.00,meteohub,2013-07-19 16:03:00,
2013-07-19 11:08:00,82.9,73.8,30.09,WNW,293,1.0,2.0,74,0.00,,,0.00,meteohub,2013-07-19 16:08:00,
2013-07-19 11:13:00,82.8,73.9,30.10,WNW,293,0.0,2.0,75,0.00,,,0.00,meteohub,2013-07-19 16:13:00,
2013-07-19 11:18:00,82.9,75.4,30.09,WNW,293,0.0,2.0,78,0.00,,,0.00,meteohub,2013-07-19 16:18:00,
2013-07-19 11:23:00,82.9,74.1,30.09,West,261,2.0,2.0,75,0.00,,,0.00,meteohub,2013-07-19 16:23:00,
2013-07-19 11:28:00,83.1,74.3,30.09,West,261,1.0,3.0,75,0.00,,,0.00,meteohub,2013-07-19 16:28:00,
2013-07-19 11:34:00,83.7,74.8,30.09,SSW,210,0.0,3.0,75,0.00,,,0.00,meteohub,2013-07-19 16:34:00,
2013-07-19 11:39:00,83.8,75.4,30.09,WSW,239,0.0,3.0,76,0.00,,,0.00,meteohub,2013-07-19 16:39:00,
2013-07-19 11:44:00,84.0,75.6,30.08,NE,52,1.0,2.0,76,0.00,,,0.00,meteohub,2013-07-19 16:44:00,
2013-07-19 11:49:00,83.8,75.4,30.08,NW,310,1.0,3.0,76,0.00,,,0.00,meteohub,2013-07-19 16:49:00,
2013-07-19 11:54:00,83.8,75.4,30.08,WNW,291,1.0,3.0,76,0.00,,,0.00,meteohub,2013-07-19 16:54:00,
2013-07-19 11:59:00,84.6,76.1,30.08,NW,313,2.0,4.0,76,0.00,,,0.00,meteohub,2013-07-19 16:59:00,
2013-07-19 12:04:00,84.7,75.2,30.07,WNW,291,2.0,4.0,73,0.00,,,0.00,meteohub,2013-07-19 17:04:00,
2013-07-19 12:09:00,85.3,74.8,30.07,WSW,247,3.0,4.0,71,0.00,,,0.00,meteohub,2013-07-19 17:09:00,
2013-07-19 12:14:00,84.9,74.5,30.07,NNW,343,0.0,3.0,71,0.00,,,0.00,meteohub,2013-07-19 17:14:00,
2013-07-19 12:20:00,85.3,74.3,30.07,NE,55,0.0,3.0,70,0.00,,,0.00,meteohub,2013-07-19 17:20:00,
2013-07-19 12:25:00,85.5,75.4,30.07,ENE,77,0.0,3.0,72,0.00,,,0.00,meteohub,2013-07-19 17:25:00,
2013-07-19 12:30:00,86.0,74.7,30.07,ENE,77,2.0,3.0,69,0.00,,,0.00,meteohub,2013-07-19 17:30:00,
2013-07-19 12:35:00,85.8,75.4,30.07,NW,306,1.0,5.0,71,0.00,,,0.00,meteohub,2013-07-19 17:35:00,
2013-07-19 12:40:00,85.5,75.4,30.06,West,275,0.0,5.0,72,0.00,,,0.00,meteohub,2013-07-19 17:40:00,
2013-07-19 12:45:00,84.7,74.7,30.06,NW,307,1.0,4.0,72,0.00,,,0.00,meteohub,2013-07-19 17:45:00,
2013-07-19 12:50:00,84.9,75.2,30.05,NW,323,0.0,4.0,73,0.00,,,0.00,meteohub,2013-07-19 17:50:00,
2013-07-19 12:55:00,85.1,75.0,30.05,NW,324,0.0,4.0,72,0.00,,,0.00,meteohub,2013-07-19 17:55:00,
2013-07-19 13:00:00,85.1,75.4,30.05,West,266,2.0,2.0,73,0.00,,,0.00,meteohub,2013-07-19 18:00:00,
2013-07-19 13:05:00,84.6,74.5,30.04,NE,45,0.0,3.0,72,0.00,,,0.00,meteohub,2013-07-19 18:05:00,
2013-07-19 13:11:00,84.6,74.1,30.04,East,83,2.0,3.0,71,0.00,,,0.00,meteohub,2013-07-19 18:11:00,
2013-07-19 13:16:00,85.1,73.4,30.04,ENE,76,2.0,4.0,68,0.00,,,0.00,meteohub,2013-07-19 18:16:00,
2013-07-19 13:21:00,85.8,74.8,30.04,ESE,103,1.0,5.0,70,0.00,,,0.00,meteohub,2013-07-19 18:21:00,
2013-07-19 13:26:00,86.5,75.2,30.04,NE,55,3.0,5.0,69,0.00,,,0.00,meteohub,2013-07-19 18:26:00,
2013-07-19 13:31:00,87.1,75.2,30.03,East,94,1.0,6.0,68,0.00,,,0.00,meteohub,2013-07-19 18:31:00,
2013-07-19 13:36:00,88.0,74.3,30.03,SE,143,0.0,6.0,64,0.00,,,0.00,meteohub,2013-07-19 18:36:00,
2013-07-19 13:41:00,87.6,74.3,30.04,SE,141,1.0,5.0,65,0.00,,,0.00,meteohub,2013-07-19 18:41:00,
2013-07-19 13:46:00,87.3,75.0,30.03,SW,234,0.0,5.0,67,0.00,,,0.00,meteohub,2013-07-19 18:46:00,
2013-07-19 13:52:00,86.7,74.8,30.03,SW,234,0.0,5.0,68,0.00,,,0.00,meteohub,2013-07-19 18:52:00,
2013-07-19 13:57:00,86.4,74.1,30.03,ENE,58,0.0,2.0,67,0.00,,,0.00,meteohub,2013-07-19 18:57:00,
2013-07-19 14:02:00,85.8,74.5,30.03,ENE,60,0.0,2.0,69,0.00,,,0.00,meteohub,2013-07-19 19:02:00,
2013-07-19 14:07:00,84.6,75.0,30.04,ENE,77,8.0,9.0,73,0.00,,,0.00,meteohub,2013-07-19 19:07:00,
2013-07-19 14:12:00,81.5,75.0,30.03,NNE,30,2.0,11.0,81,0.00,,,0.00,meteohub,2013-07-19 19:12:00,
2013-07-19 14:17:00,79.7,74.1,30.03,NNE,30,0.0,14.0,83,0.01,,,0.01,meteohub,2013-07-19 19:17:00,
2013-07-19 14:22:00,78.6,74.1,30.04,NNE,31,1.0,14.0,86,0.02,,,0.02,meteohub,2013-07-19 19:22:00,
2013-07-19 14:27:00,77.9,74.1,30.04,NNE,31,1.0,9.0,88,0.02,,,0.02,meteohub,2013-07-19 19:27:00,
2013-07-19 14:32:00,77.5,74.1,30.04,NNE,31,1.0,3.0,89,0.02,,,0.02,meteohub,2013-07-19 19:32:00,
2013-07-19 14:37:00,77.5,74.1,30.04,NNE,31,0.0,2.0,89,0.02,,,0.02,meteohub,2013-07-19 19:37:00,
2013-07-19 14:42:00,77.2,73.4,30.04,West,266,1.0,1.0,88,0.03,,,0.03,meteohub,2013-07-19 19:42:00,
2013-07-19 14:47:00,77.0,73.6,30.04,West,266,1.0,5.0,89,0.04,,,0.04,meteohub,2013-07-19 19:47:00,
2013-07-19 14:52:00,76.6,72.9,30.04,West,266,0.0,5.0,88,0.04,,,0.04,meteohub,2013-07-19 19:52:00,
2013-07-19 14:57:00,76.5,73.2,30.03,West,266,0.0,1.0,90,0.04,,,0.04,meteohub,2013-07-19 19:57:00,
2013-07-19 15:02:00,76.3,73.4,30.04,SSW,196,0.0,2.0,91,0.04,,,0.04,meteohub,2013-07-19 20:02:00,
2013-07-19 15:07:00,76.3,73.4,30.04,SSW,196,0.0,2.0,91,0.04,,,0.04,meteohub,2013-07-19 20:07:00,
2013-07-19 15:12:00,76.3,73.8,30.03,SSW,196,0.0,2.0,92,0.04,,,0.04,meteohub,2013-07-19 20:12:00,
2013-07-19 15:17:00,76.5,73.9,30.03,SSW,196,0.0,2.0,92,0.03,,,0.04,meteohub,2013-07-19 20:17:00,
2013-07-19 15:22:00,76.5,73.9,30.03,SW,225,0.0,2.0,92,0.02,,,0.04,meteohub,2013-07-19 20:22:00,
2013-07-19 15:27:00,76.5,73.9,30.03,SW,215,0.0,3.0,92,0.02,,,0.04,meteohub,2013-07-19 20:27:00,
2013-07-19 15:32:00,76.6,74.1,30.03,WSW,239,1.0,4.0,92,0.02,,,0.04,meteohub,2013-07-19 20:32:00,
2013-07-19 15:37:00,76.6,74.1,30.04,West,264,1.0,4.0,92,0.02,,,0.04,meteohub,2013-07-19 20:37:00,
2013-07-19 15:42:00,76.3,73.4,30.03,SW,214,3.0,4.0,91,0.02,,,0.05,meteohub,2013-07-19 20:42:00,
2013-07-19 15:47:00,75.9,73.0,30.03,SW,220,2.0,4.0,91,0.01,,,0.05,meteohub,2013-07-19 20:47:00,
2013-07-19 15:52:00,75.7,73.2,30.03,WSW,237,2.0,4.0,92,0.01,,,0.05,meteohub,2013-07-19 20:52:00,
2013-07-19 15:57:00,75.6,73.0,30.04,SSW,195,1.0,4.0,92,0.01,,,0.05,meteohub,2013-07-19 20:57:00,
2013-07-19 16:02:00,75.6,73.0,30.04,WSW,253,1.0,4.0,92,0.02,,,0.06,meteohub,2013-07-19 21:02:00,
2013-07-19 16:07:00,75.4,73.2,30.04,WSW,247,2.0,4.0,93,0.03,,,0.06,meteohub,2013-07-19 21:07:00,
2013-07-19 16:12:00,75.2,73.0,30.03,WSW,241,2.0,4.0,93,0.03,,,0.07,meteohub,2013-07-19 21:12:00,
2013-07-19 16:17:00,75.4,73.6,30.04,SSW,201,1.0,5.0,94,0.04,,,0.08,meteohub,2013-07-19 21:17:00,
2013-07-19 16:22:00,75.4,73.6,30.04,WSW,247,0.0,5.0,94,0.04,,,0.08,meteohub,2013-07-19 21:22:00,
2013-07-19 16:27:00,75.6,73.8,30.04,SW,226,0.0,5.0,94,0.04,,,0.08,meteohub,2013-07-19 21:27:00,
2013-07-19 16:32:00,75.7,73.9,30.04,WSW,253,0.0,4.0,94,0.04,,,0.08,meteohub,2013-07-19 21:32:00,
2013-07-19 16:37:00,75.7,73.9,30.04,SW,229,1.0,3.0,94,0.04,,,0.08,meteohub,2013-07-19 21:37:00,
2013-07-19 16:42:00,75.7,73.6,30.03,SSW,208,0.0,3.0,93,0.03,,,0.08,meteohub,2013-07-19 21:42:00,
2013-07-19 16:47:00,75.6,73.4,30.03,SSW,201,2.0,3.0,93,0.03,,,0.08,meteohub,2013-07-19 21:47:00,
2013-07-19 16:52:00,75.6,73.4,30.02,WNW,293,3.0,4.0,93,0.03,,,0.08,meteohub,2013-07-19 21:52:00,
2013-07-19 16:58:00,75.4,72.9,30.02,South,182,0.0,4.0,92,0.02,,,0.08,meteohub,2013-07-19 21:58:00,
2013-07-19 17:03:00,75.0,72.5,30.02,South,182,0.0,3.0,92,0.02,,,0.08,meteohub,2013-07-19 22:03:00,
2013-07-19 17:08:00,74.8,72.3,30.01,WSW,242,0.0,3.0,92,0.02,,,0.09,meteohub,2013-07-19 22:08:00,
2013-07-19 17:13:00,74.8,72.7,30.01,SW,231,0.0,3.0,93,0.02,,,0.09,meteohub,2013-07-19 22:13:00,
2013-07-19 17:18:00,74.8,72.7,30.00,SW,231,0.0,3.0,93,0.01,,,0.09,meteohub,2013-07-19 22:18:00,
2013-07-19 17:23:00,74.8,72.7,30.00,SW,231,0.0,3.0,93,0.01,,,0.09,meteohub,2013-07-19 22:23:00,
2013-07-19 17:28:00,74.8,72.7,30.00,SW,231,0.0,2.0,93,0.01,,,0.09,meteohub,2013-07-19 22:28:00,
2013-07-19 17:33:00,74.8,72.7,29.99,WSW,247,0.0,2.0,93,0.01,,,0.09,meteohub,2013-07-19 22:33:00,
2013-07-19 17:38:00,75.0,73.2,30.00,WSW,247,0.0,2.0,94,0.01,,,0.09,meteohub,2013-07-19 22:38:00,
2013-07-19 17:39:00,75.0,73.2,30.00,WSW,247,0.0,2.0,94,0.01,,,0.09,meteohub,2013-07-19 22:39:00,
2013-07-19 17:45:00,75.0,73.2,30.00,WSW,247,0.0,2.0,94,0.02,,,0.10,meteohub,2013-07-19 22:45:00,
2013-07-19 17:50:00,75.4,73.2,30.00,WSW,247,0.0,2.0,93,0.02,,,0.10,meteohub,2013-07-19 22:50:00,
2013-07-19 17:55:00,75.4,73.6,30.00,WSW,247,0.0,1.0,94,0.02,,,0.10,meteohub,2013-07-19 22:55:00,
2013-07-19 18:00:00,75.6,73.8,29.99,WSW,247,0.0,1.0,94,0.01,,,0.10,meteohub,2013-07-19 23:00:00,
2013-07-19 18:05:00,75.6,73.8,30.00,WSW,247,0.0,1.0,94,0.01,,,0.10,meteohub,2013-07-19 23:05:00,
2013-07-19 18:10:00,75.6,73.4,30.00,WSW,247,0.0,0.0,93,0.01,,,0.10,meteohub,2013-07-19 23:10:00,
2013-07-19 18:15:00,75.6,73.4,30.00,WSW,247,0.0,1.0,93,0.01,,,0.10,meteohub,2013-07-19 23:15:00,
2013-07-19 18:20:00,75.6,73.4,29.99,WSW,247,0.0,1.0,93,0.01,,,0.10,meteohub,2013-07-19 23:20:00,
2013-07-19 18:25:00,75.7,73.9,29.99,WSW,247,0.0,1.0,94,0.01,,,0.10,meteohub,2013-07-19 23:25:00,
2013-07-19 18:31:00,75.9,74.1,29.99,WSW,247,0.0,1.0,94,0.01,,,0.10,meteohub,2013-07-19 23:31:00,
2013-07-19 18:36:00,75.9,74.1,29.99,SW,223,1.0,1.0,94,0.00,,,0.10,meteohub,2013-07-19 23:36:00,
2013-07-19 18:41:00,76.3,74.1,30.00,SE,126,2.0,2.0,93,0.00,,,0.10,meteohub,2013-07-19 23:41:00,
2013-07-19 18:46:00,76.3,74.1,30.00,SE,125,1.0,3.0,93,0.00,,,0.10,meteohub,2013-07-19 23:46:00,
2013-07-19 18:51:00,76.5,74.3,30.00,SE,125,0.0,3.0,93,0.00,,,0.10,meteohub,2013-07-19 23:51:00,
2013-07-19 18:56:00,76.5,74.3,29.99,SE,125,0.0,3.0,93,0.00,,,0.10,meteohub,2013-07-19 23:56:00,
2013-07-19 19:01:00,76.5,74.3,29.99,SE,125,0.0,2.0,93,0.00,,,0.10,meteohub,2013-07-20 00:01:00,
2013-07-19 19:06:00,76.5,74.3,30.00,SE,125,0.0,1.0,93,0.00,,,0.00,meteohub,2013-07-20 00:06:00,
2013-07-19 19:11:00,76.5,74.3,29.99,SE,125,0.0,2.0,93,0.00,,,0.00,meteohub,2013-07-20 00:11:00,
2013-07-19 19:16:00,76.3,74.1,29.99,SE,125,0.0,2.0,93,0.00,,,0.00,meteohub,2013-07-20 00:16:00,
2013-07-19 19:22:00,76.3,74.1,29.99,SE,125,0.0,2.0,93,0.00,,,0.00,meteohub,2013-07-20 00:22:00,
2013-07-19 19:27:00,76.1,73.9,29.99,SE,125,0.0,1.0,93,0.00,,,0.00,meteohub,2013-07-20 00:27:00,
2013-07-19 19:32:00,75.9,73.8,29.99,SE,125,1.0,1.0,93,0.00,,,0.00,meteohub,2013-07-20 00:32:00,
2013-07-19 19:37:00,75.6,73.0,29.99,SE,125,0.0,1.0,92,0.00,,,0.00,meteohub,2013-07-20 00:37:00,
2013-07-19 19:42:00,75.4,72.9,29.99,SE,125,0.0,1.0,92,0.00,,,0.00,meteohub,2013-07-20 00:42:00,
2013-07-19 19:47:00,75.0,72.9,30.00,SE,125,0.0,1.0,93,0.00,,,0.00,meteohub,2013-07-20 00:47:00,
2013-07-19 19:52:00,74.8,72.7,30.00,SE,125,0.0,1.0,93,0.00,,,0.00,meteohub,2013-07-20 00:52:00,
2013-07-19 19:57:00,74.7,72.5,29.99,SE,125,0.0,0.0,93,0.00,,,0.00,meteohub,2013-07-20 00:57:00,
2013-07-19 20:02:00,74.5,72.3,29.99,SE,125,0.0,0.0,93,0.00,,,0.00,meteohub,2013-07-20 01:02:00,
2013-07-19 20:07:00,74.1,72.0,29.99,SE,125,0.0,0.0,93,0.00,,,0.00,meteohub,2013-07-20 01:07:00,
2013-07-19 20:12:00,73.9,71.8,29.99,SE,125,0.0,0.0,93,0.00,,,0.00,meteohub,2013-07-20 01:12:00,
2013-07-19 20:17:00,73.9,72.1,30.00,SE,125,0.0,0.0,94,0.00,,,0.00,meteohub,2013-07-20 01:17:00,
2013-07-19 20:22:00,73.8,72.0,30.00,SE,125,0.0,0.0,94,0.00,,,0.00,meteohub,2013-07-20 01:22:00,
2013-07-19 20:27:00,73.8,72.0,30.01,SE,125,0.0,0.0,94,0.00,,,0.00,meteohub,2013-07-20 01:27:00,
2013-07-19 20:32:00,73.8,72.0,30.01,SE,125,0.0,0.0,94,0.00,,,0.00,meteohub,2013-07-20 01:32:00,
2013-07-19 20:37:00,73.8,72.0,30.01,ENE,73,0.0,2.0,94,0.00,,,0.00,meteohub,2013-07-20 01:37:00,
2013-07-19 20:42:00,73.8,72.3,30.01,ENE,73,0.0,2.0,95,0.00,,,0.00,meteohub,2013-07-20 01:42:00,
2013-07-19 20:47:00,73.8,72.3,30.01,ENE,73,0.0,2.0,95,0.00,,,0.00,meteohub,2013-07-20 01:47:00,
2013-07-19 20:52:00,73.8,72.3,30.01,East,85,0.0,2.0,95,0.00,,,0.00,meteohub,2013-07-20 01:52:00,
2013-07-19 20:57:00,73.8,72.3,30.01,East,85,0.0,3.0,95,0.00,,,0.00,meteohub,2013-07-20 01:57:00,
2013-07-19 21:02:00,73.8,72.3,30.01,East,85,0.0,3.0,95,0.00,,,0.00,meteohub,2013-07-20 02:02:00,
2013-07-19 21:07:00,73.8,72.3,30.01,East,89,0.0,3.0,95,0.00,,,0.00,meteohub,2013-07-20 02:07:00,
2013-07-19 21:12:00,73.8,72.3,30.01,East,89,0.0,2.0,95,0.00,,,0.00,meteohub,2013-07-20 02:12:00,
2013-07-19 21:17:00,73.8,72.3,30.01,East,89,0.0,2.0,95,0.00,,,0.00,meteohub,2013-07-20 02:17:00,
2013-07-19 21:22:00,73.8,72.3,30.02,ESE,104,1.0,2.0,95,0.00,,,0.00,meteohub,2013-07-20 02:22:00,
2013-07-19 21:27:00,73.8,72.3,30.02,ESE,104,0.0,2.0,95,0.00,,,0.00,meteohub,2013-07-20 02:27:00,
2013-07-19 21:32:00,73.8,72.3,30.02,ESE,104,1.0,2.0,95,0.00,,,0.00,meteohub,2013-07-20 02:32:00,
2013-07-19 21:37:00,73.6,72.1,30.03,ESE,104,0.0,2.0,95,0.00,,,0.00,meteohub,2013-07-20 02:37:00,
2013-07-19 21:42:00,73.6,72.1,30.03,ESE,104,2.0,2.0,95,0.00,,,0.00,meteohub,2013-07-20 02:42:00,
2013-07-19 21:47:00,73.6,72.1,30.03,ESE,105,0.0,2.0,95,0.00,,,0.00,meteohub,2013-07-20 02:47:00,
2013-07-19 21:52:00,73.6,72.1,30.04,ESE,105,0.0,2.0,95,0.00,,,0.00,meteohub,2013-07-20 02:52:00,
2013-07-19 21:57:00,73.6,71.8,30.04,ESE,105,0.0,2.0,94,0.00,,,0.00,meteohub,2013-07-20 02:57:00,
2013-07-19 22:02:00,73.4,71.6,30.04,ESE,105,0.0,1.0,94,0.00,,,0.00,meteohub,2013-07-20 03:02:00,
2013-07-19 22:07:00,73.4,71.6,30.04,ESE,105,0.0,1.0,94,0.00,,,0.00,meteohub,2013-07-20 03:07:00,
2013-07-19 22:12:00,73.2,71.4,30.04,ESE,105,0.0,0.0,94,0.00,,,0.00,meteohub,2013-07-20 03:12:00,
2013-07-19 22:17:00,73.2,71.4,30.04,ESE,105,0.0,0.0,94,0.00,,,0.00,meteohub,2013-07-20 03:17:00,
2013-07-19 22:22:00,73.2,71.4,30.04,ESE,105,0.0,0.0,94,0.00,,,0.00,meteohub,2013-07-20 03:22:00,
2013-07-19 22:27:00,73.2,71.4,30.04,ESE,105,0.0,0.0,94,0.00,,,0.00,meteohub,2013-07-20 03:27:00,
2013-07-19 22:32:00,73.2,71.4,30.04,ESE,105,0.0,0.0,94,0.00,,,0.00,meteohub,2013-07-20 03:32:00,
2013-07-19 22:37:00,73.2,71.4,30.04,ESE,105,0.0,0.0,94,0.00,,,0.00,meteohub,2013-07-20 03:37:00,
2013-07-19 22:42:00,73.2,71.4,30.04,ESE,105,0.0,0.0,94,0.00,,,0.00,meteohub,2013-07-20 03:42:00,
2013-07-19 22:47:00,73.2,71.4,30.04,ESE,105,0.0,0.0,94,0.00,,,0.00,meteohub,2013-07-20 03:47:00,
2013-07-19 22:52:00,73.2,71.4,30.04,ESE,105,0.0,0.0,94,0.00,,,0.00,meteohub,2013-07-20 03:52:00,
2013-07-19 22:57:00,73.2,71.4,30.04,ESE,105,0.0,0.0,94,0.00,,,0.00,meteohub,2013-07-20 03:57:00,
2013-07-19 23:01:00,73.2,71.4,30.04,ESE,105,0.0,1.0,94,0.00,,,0.00,meteohub,2013-07-20 04:01:00,
2013-07-19 23:02:00,73.2,71.4,30.04,ESE,105,0.0,1.0,94,0.00,,,0.00,meteohub,2013-07-20 04:02:00,
2013-07-19 23:04:00,73.2,71.4,30.04,ESE,105,0.0,1.0,94,0.00,,,0.00,meteohub,2013-07-20 04:04:00,
2013-07-19 23:05:00,73.2,71.4,30.04,ESE,105,0.0,1.0,94,0.00,,,0.00,meteohub,2013-07-20 04:05:00,
2013-07-19 23:11:00,73.2,71.4,30.04,ESE,105,0.0,1.0,94,0.00,,,0.00,meteohub,2013-07-20 04:11:00,
2013-07-19 23:16:00,73.0,71.2,30.04,ESE,105,0.0,0.0,94,0.00,,,0.00,meteohub,2013-07-20 04:16:00,
2013-07-19 23:21:00,73.0,71.2,30.04,ESE,105,0.0,1.0,94,0.00,,,0.00,meteohub,2013-07-20 04:21:00,
2013-07-19 23:26:00,73.0,71.2,30.04,ESE,105,0.0,1.0,94,0.00,,,0.00,meteohub,2013-07-20 04:26:00,
2013-07-19 23:31:00,73.0,71.2,30.04,ESE,105,0.0,1.0,94,0.00,,,0.00,meteohub,2013-07-20 04:31:00,
2013-07-19 23:36:00,73.0,71.6,30.04,ESE,105,0.0,0.0,95,0.00,,,0.00,meteohub,2013-07-20 04:36:00,
2013-07-19 23:41:00,72.9,71.4,30.04,ESE,105,0.0,0.0,95,0.00,,,0.00,meteohub,2013-07-20 04:41:00,
2013-07-19 23:46:00,72.9,71.4,30.04,ESE,104,0.0,0.0,95,0.00,,,0.00,meteohub,2013-07-20 04:46:00,
2013-07-19 23:51:00,72.9,71.4,30.04,ESE,105,0.0,0.0,95,0.00,,,0.00,meteohub,2013-07-20 04:51:00,
2013-07-19 23:57:00,73.0,71.6,30.04,ESE,105,0.0,2.0,95,0.00,,,0.00,meteohub,2013-07-20 04:57:00,